createdAt,value
2023-02-17T00:01:15.681Z,19.80
2023-02-17T00:03:42.864Z,19.80
2023-02-17T00:06:11.616Z,23.13
2023-02-17T00:08:38.474Z,20.33
2023-02-17T00:11:05.897Z,20.83
2023-02-17T00:13:34.008Z,20.63
2023-02-17T00:16:08.225Z,21.80
2023-02-17T00:18:35.775Z,20.57
2023-02-17T00:21:12.422Z,20.73
2023-02-17T00:23:39.268Z,21.53
2023-02-17T00:26:08.447Z,25.33
2023-02-17T00:28:36.102Z,26.53
2023-02-17T00:31:11.854Z,25.17
2023-02-17T00:33:38.795Z,26.80
2023-02-17T00:36:17.829Z,27.80
2023-02-17T00:38:45.162Z,29.13
2023-02-17T00:41:12.280Z,28.70
2023-02-17T00:43:39.283Z,26.60
2023-02-17T00:46:07.159Z,24.90
2023-02-17T00:48:34.782Z,24.07
2023-02-17T00:51:01.712Z,23.70
2023-02-17T00:53:29.216Z,23.17
2023-02-17T00:55:56.424Z,23.80
2023-02-17T00:58:23.862Z,20.87
2023-02-17T01:00:50.744Z,22.40
2023-02-17T01:03:18.683Z,20.17
2023-02-17T01:05:48.346Z,21.23
2023-02-17T01:08:16.672Z,18.77
2023-02-17T01:10:46.090Z,19.57
2023-02-17T01:13:15.296Z,18.63
2023-02-17T01:15:45.412Z,18.97
2023-02-17T01:18:13.024Z,18.10
2023-02-17T01:20:40.823Z,17.80
2023-02-17T01:23:09.183Z,16.23
2023-02-17T01:25:41.473Z,18.07
2023-02-17T01:28:12.168Z,17.57
2023-02-17T01:30:39.118Z,16.83
2023-02-17T01:33:05.991Z,16.17
2023-02-17T01:35:34.273Z,16.50
2023-02-17T01:38:01.514Z,17.03
2023-02-17T01:40:28.561Z,16.17
2023-02-17T01:42:55.482Z,17.00
2023-02-17T01:45:22.811Z,16.50
2023-02-17T01:47:59.852Z,15.30
2023-02-17T01:50:51.912Z,15.60
2023-02-17T01:53:25.277Z,15.30
2023-02-17T01:55:53.516Z,15.90
2023-02-17T01:58:23.293Z,15.47
2023-02-17T02:00:52.504Z,16.90
2023-02-17T02:03:20.622Z,17.47
2023-02-17T02:05:47.606Z,18.97
2023-02-17T02:08:15.969Z,19.30
2023-02-17T02:10:42.947Z,19.20
2023-02-17T02:13:10.410Z,20.47
2023-02-17T02:16:03.643Z,20.07
2023-02-17T02:18:42.689Z,19.37
2023-02-17T02:21:40.353Z,17.50
2023-02-17T02:24:19.476Z,15.53
2023-02-17T02:27:14.283Z,17.70
2023-02-17T02:29:50.177Z,18.90
2023-02-17T02:32:32.663Z,18.67
2023-02-17T02:35:14.431Z,18.13
2023-02-17T02:38:01.153Z,18.40
2023-02-17T02:40:33.128Z,18.10
2023-02-17T02:43:02.307Z,17.80
2023-02-17T02:45:29.523Z,18.80
2023-02-17T02:47:58.309Z,17.37
2023-02-17T02:50:52.913Z,17.43
2023-02-17T02:53:57.858Z,17.37
2023-02-17T02:56:43.640Z,15.83
2023-02-17T02:59:26.235Z,14.67
2023-02-17T03:01:59.716Z,14.80
2023-02-17T03:04:36.411Z,15.90
2023-02-17T03:07:12.738Z,14.20
2023-02-17T03:09:39.815Z,14.07
2023-02-17T03:12:07.199Z,14.20
2023-02-17T03:14:38.532Z,14.10
2023-02-17T03:17:05.774Z,12.83
2023-02-17T03:19:32.976Z,12.10
2023-02-17T03:22:11.201Z,13.20
2023-02-17T03:24:38.141Z,12.03
2023-02-17T03:27:05.098Z,11.80
2023-02-17T03:29:32.523Z,12.10
2023-02-17T03:31:59.580Z,12.27
2023-02-17T03:34:27.253Z,12.17
2023-02-17T03:36:54.175Z,11.73
2023-02-17T03:39:21.351Z,11.37
2023-02-17T03:41:51.985Z,10.43
2023-02-17T03:44:19.472Z,10.40
2023-02-17T03:46:47.246Z,10.83
2023-02-17T03:49:14.256Z,10.27
2023-02-17T03:51:41.359Z,10.53
2023-02-17T03:54:08.557Z,10.20
2023-02-17T03:56:35.494Z,10.20
2023-02-17T03:59:02.413Z,11.20
2023-02-17T04:01:29.600Z,9.13
2023-02-17T04:03:56.612Z,9.87
2023-02-17T04:06:23.754Z,9.27
2023-02-17T04:08:50.817Z,10.57
2023-02-17T04:11:18.011Z,8.77
2023-02-17T04:13:44.953Z,8.30
2023-02-17T04:16:11.963Z,8.20
2023-02-17T04:18:39.168Z,8.33
2023-02-17T04:21:06.596Z,8.17
2023-02-17T04:23:36.118Z,7.90
2023-02-17T04:26:08.011Z,6.90
2023-02-17T04:28:38.670Z,6.70
2023-02-17T04:31:05.829Z,7.77
2023-02-17T04:33:33.028Z,7.40
2023-02-17T04:36:00.485Z,7.83
2023-02-17T04:38:31.943Z,7.47
2023-02-17T04:41:00.100Z,7.53
2023-02-17T04:43:28.362Z,8.23
2023-02-17T04:45:55.454Z,10.13
2023-02-17T04:48:22.515Z,7.87
2023-02-17T04:50:49.270Z,8.20
2023-02-17T04:53:16.070Z,6.43
2023-02-17T04:55:43.263Z,7.47
2023-02-17T04:58:10.928Z,7.53
2023-02-17T05:00:37.994Z,7.13
2023-02-17T05:03:04.945Z,6.90
2023-02-17T05:05:31.750Z,7.07
2023-02-17T05:07:58.507Z,7.00
2023-02-17T05:10:25.182Z,6.50
2023-02-17T05:12:52.433Z,7.07
2023-02-17T05:15:19.312Z,7.37
2023-02-17T05:17:48.956Z,6.47
2023-02-17T05:20:15.600Z,8.40
2023-02-17T05:22:42.221Z,7.20
2023-02-17T05:25:08.940Z,8.20
2023-02-17T05:27:36.010Z,7.90
2023-02-17T05:30:03.442Z,7.83
2023-02-17T05:32:30.657Z,7.90
2023-02-17T05:34:57.329Z,7.57
2023-02-17T05:37:24.476Z,8.70
2023-02-17T05:39:51.157Z,8.87
2023-02-17T05:42:17.813Z,8.57
2023-02-17T05:44:44.626Z,8.20
2023-02-17T05:47:11.270Z,8.47
2023-02-17T05:49:38.019Z,7.93
2023-02-17T05:52:04.960Z,7.73
2023-02-17T05:54:31.678Z,7.23
2023-02-17T05:56:58.651Z,7.00
2023-02-17T05:59:25.467Z,6.67
2023-02-17T06:01:52.755Z,7.13
2023-02-17T06:04:19.466Z,7.17
2023-02-17T06:06:46.597Z,7.20
2023-02-17T06:09:13.319Z,7.90
2023-02-17T06:11:40.048Z,10.00
2023-02-17T06:14:06.783Z,9.40
2023-02-17T06:16:33.686Z,10.07
2023-02-17T06:19:02.152Z,9.37
2023-02-17T06:21:29.108Z,10.03
2023-02-17T06:23:56.236Z,8.90
2023-02-17T06:26:23.592Z,10.03
2023-02-17T06:28:50.282Z,8.60
2023-02-17T06:31:17.385Z,8.53
2023-02-17T06:33:44.107Z,10.23
2023-02-17T06:36:10.868Z,9.70
2023-02-17T06:38:37.645Z,8.53
2023-02-17T06:41:04.550Z,9.30
2023-02-17T06:43:31.258Z,9.20
2023-02-17T06:45:58.021Z,8.87
2023-02-17T06:48:25.353Z,8.17
2023-02-17T06:50:52.403Z,8.57
2023-02-17T06:53:19.723Z,8.07
2023-02-17T06:55:46.394Z,8.20
2023-02-17T06:58:13.062Z,8.13
2023-02-17T07:00:39.739Z,9.00
2023-02-17T07:03:06.564Z,8.83
2023-02-17T07:05:37.477Z,8.40
2023-02-17T07:08:04.733Z,8.70
2023-02-17T07:10:32.367Z,8.30
2023-02-17T07:12:59.150Z,8.53
2023-02-17T07:15:28.840Z,8.40
2023-02-17T07:17:55.496Z,8.67
2023-02-17T07:20:22.167Z,9.33
2023-02-17T07:22:48.824Z,8.40
2023-02-17T07:25:15.483Z,8.47
2023-02-17T07:27:42.879Z,8.73
2023-02-17T07:30:09.986Z,9.07
2023-02-17T07:32:36.902Z,9.53
2023-02-17T07:35:03.746Z,9.00
2023-02-17T07:37:30.953Z,9.80
2023-02-17T07:39:57.625Z,8.97
2023-02-17T07:42:24.305Z,9.33
2023-02-17T07:44:51.052Z,9.87
2023-02-17T07:47:17.813Z,9.50
2023-02-17T07:49:44.621Z,9.30
2023-02-17T07:52:11.638Z,8.70
2023-02-17T07:54:38.384Z,9.17
2023-02-17T07:57:04.981Z,8.47
2023-02-17T07:59:32.102Z,10.00
2023-02-17T08:01:58.792Z,9.97
2023-02-17T08:04:26.441Z,9.87
2023-02-17T08:06:53.066Z,9.47
2023-02-17T08:09:39.427Z,9.40
2023-02-17T08:12:24.651Z,9.87
2023-02-17T08:14:51.356Z,9.03
2023-02-17T08:17:18.167Z,9.67
2023-02-17T08:19:49.268Z,8.10
2023-02-17T08:22:19.038Z,9.23
2023-02-17T08:24:45.968Z,7.97
2023-02-17T08:27:14.629Z,9.43
2023-02-17T08:29:41.973Z,9.20
2023-02-17T08:32:09.189Z,8.70
2023-02-17T08:34:36.795Z,7.77
2023-02-17T08:37:06.302Z,8.23
2023-02-17T08:39:34.232Z,8.50
2023-02-17T08:42:01.790Z,8.43
2023-02-17T08:44:28.521Z,8.27
2023-02-17T08:46:55.280Z,8.50
2023-02-17T08:49:25.411Z,8.67
2023-02-17T08:51:52.335Z,7.93
2023-02-17T08:54:19.348Z,8.17
2023-02-17T08:56:46.156Z,8.47
2023-02-17T08:59:13.376Z,9.17
2023-02-17T09:01:41.282Z,7.60
2023-02-17T09:04:09.798Z,7.43
2023-02-17T09:06:45.749Z,8.37
2023-02-17T09:09:15.516Z,8.47
2023-02-17T09:11:43.413Z,8.30
2023-02-17T09:14:10.197Z,8.77
2023-02-17T09:16:37.087Z,8.03
2023-02-17T09:19:04.828Z,8.23
2023-02-17T09:21:32.355Z,7.80
2023-02-17T09:23:59.043Z,7.30
2023-02-17T09:26:26.106Z,7.23
2023-02-17T09:28:52.760Z,7.07
2023-02-17T09:31:22.348Z,6.83
2023-02-17T09:33:49.959Z,7.07
2023-02-17T09:36:20.254Z,7.47
2023-02-17T09:38:47.192Z,7.20
2023-02-17T09:41:26.241Z,7.40
2023-02-17T09:43:54.391Z,7.43
2023-02-17T09:46:27.728Z,7.43
2023-02-17T09:49:00.948Z,7.33
2023-02-17T09:51:38.403Z,6.80
2023-02-17T09:54:12.931Z,7.40
2023-02-17T09:56:42.985Z,7.47
2023-02-17T09:59:20.096Z,6.93
2023-02-17T10:01:48.712Z,7.37
2023-02-17T10:04:34.720Z,6.97
2023-02-17T10:07:26.088Z,6.70
2023-02-17T10:10:24.628Z,8.40
2023-02-17T10:12:56.765Z,7.00
2023-02-17T10:15:28.068Z,7.10
2023-02-17T10:18:13.084Z,7.73
2023-02-17T10:20:48.931Z,7.30
2023-02-17T10:23:19.212Z,8.00
2023-02-17T10:25:55.462Z,7.20
2023-02-17T10:28:33.992Z,7.03
2023-02-17T10:31:09.772Z,7.33
2023-02-17T10:33:58.604Z,7.50
2023-02-17T10:36:43.085Z,7.10
2023-02-17T10:39:21.876Z,6.90
2023-02-17T10:41:51.620Z,7.07
2023-02-17T10:44:25.422Z,7.20
2023-02-17T10:46:54.116Z,7.17
2023-02-17T10:49:35.229Z,6.60
2023-02-17T10:52:11.695Z,7.33
2023-02-17T10:54:54.360Z,7.57
2023-02-17T10:57:22.959Z,7.50
2023-02-17T10:59:50.734Z,7.37
2023-02-17T11:02:28.011Z,6.10
2023-02-17T11:04:55.357Z,6.90
2023-02-17T11:07:41.895Z,6.80
2023-02-17T11:10:41.422Z,6.20
2023-02-17T11:13:35.071Z,6.10
2023-02-17T11:16:02.648Z,6.57
2023-02-17T11:18:33.396Z,5.60
2023-02-17T11:21:10.150Z,5.43
2023-02-17T11:23:51.948Z,6.20
2023-02-17T11:26:28.597Z,6.10
2023-02-17T11:28:55.927Z,6.13
2023-02-17T11:31:32.077Z,5.20
2023-02-17T11:33:59.012Z,5.47
2023-02-17T11:36:31.268Z,5.00
2023-02-17T11:39:00.696Z,5.30
2023-02-17T11:41:27.955Z,5.00
2023-02-17T11:43:59.263Z,5.67
2023-02-17T11:46:29.094Z,5.60
2023-02-17T11:49:14.119Z,5.60
2023-02-17T11:52:19.965Z,4.77
2023-02-17T11:55:25.282Z,4.80
2023-02-17T11:58:11.192Z,6.20
2023-02-17T12:00:47.618Z,5.27
2023-02-17T12:03:35.778Z,5.53
2023-02-17T12:06:38.677Z,4.60
2023-02-17T12:09:20.344Z,4.50
2023-02-17T12:11:50.365Z,4.00
2023-02-17T12:14:47.182Z,5.07
2023-02-17T12:17:36.670Z,4.60
2023-02-17T12:20:27.440Z,4.13
2023-02-17T12:22:54.262Z,4.20
2023-02-17T12:25:33.380Z,4.17
2023-02-17T12:28:20.483Z,4.40
2023-02-17T12:30:52.816Z,4.80
2023-02-17T12:33:25.598Z,4.43
2023-02-17T12:36:03.138Z,5.00
2023-02-17T12:38:33.672Z,4.80
2023-02-17T12:41:06.008Z,4.77
2023-02-17T12:43:49.444Z,4.90
2023-02-17T12:46:21.854Z,4.30
2023-02-17T12:48:54.248Z,4.20
2023-02-17T12:51:28.943Z,4.20
2023-02-17T12:53:58.831Z,5.20
2023-02-17T12:56:26.083Z,5.30
2023-02-17T12:58:56.461Z,4.90
2023-02-17T13:01:26.594Z,4.80
2023-02-17T13:03:54.274Z,5.07
2023-02-17T13:06:21.092Z,4.50
2023-02-17T13:08:58.912Z,4.80
2023-02-17T13:11:27.477Z,4.37
2023-02-17T13:13:54.450Z,4.30
2023-02-17T13:16:22.087Z,4.90
2023-02-17T13:18:51.918Z,4.43
2023-02-17T13:21:23.232Z,4.30
2023-02-17T13:24:13.838Z,4.47
2023-02-17T13:26:45.179Z,4.13
2023-02-17T13:29:23.766Z,4.70
2023-02-17T13:31:56.130Z,4.47
2023-02-17T13:34:29.253Z,5.27
2023-02-17T13:36:57.054Z,5.33
2023-02-17T13:39:29.569Z,6.33
2023-02-17T13:41:58.937Z,6.60
2023-02-17T13:44:30.117Z,6.90
2023-02-17T13:47:12.761Z,7.17
2023-02-17T13:49:40.014Z,7.10
2023-02-17T13:52:08.530Z,7.80
2023-02-17T13:54:35.710Z,8.00
2023-02-17T13:57:02.655Z,9.00
2023-02-17T13:59:29.564Z,9.77
2023-02-17T14:01:56.518Z,11.30
2023-02-17T14:04:30.945Z,11.93
2023-02-17T14:07:00.075Z,12.23
2023-02-17T14:09:32.283Z,13.60
2023-02-17T14:12:03.027Z,13.63
2023-02-17T14:14:33.143Z,14.50
2023-02-17T14:17:03.832Z,15.20
2023-02-17T14:19:46.316Z,14.23
2023-02-17T14:22:37.892Z,15.03
2023-02-17T14:25:26.121Z,14.40
2023-02-17T14:27:53.023Z,17.00
2023-02-17T14:30:29.718Z,16.10
2023-02-17T14:33:08.993Z,18.27
2023-02-17T14:35:39.690Z,18.20
2023-02-17T14:38:20.204Z,17.43
2023-02-17T14:40:48.054Z,17.47
2023-02-17T14:43:15.462Z,15.90
2023-02-17T14:45:42.480Z,15.70
2023-02-17T14:48:09.564Z,15.77
2023-02-17T14:50:42.368Z,16.53
2023-02-17T14:53:12.705Z,15.30
2023-02-17T14:56:00.753Z,14.93
2023-02-17T14:58:29.207Z,15.73
2023-02-17T15:00:56.626Z,15.57
2023-02-17T15:03:24.549Z,16.60
2023-02-17T15:05:51.870Z,15.93
2023-02-17T15:08:22.637Z,17.73
2023-02-17T15:10:51.607Z,16.40
2023-02-17T15:13:21.305Z,15.40
2023-02-17T15:15:49.802Z,14.73
2023-02-17T15:18:19.026Z,14.97
2023-02-17T15:20:48.315Z,12.70
2023-02-17T15:23:20.902Z,11.57
2023-02-17T15:25:48.781Z,13.03
2023-02-17T15:28:18.359Z,11.40
2023-02-17T15:30:51.987Z,11.47
2023-02-17T15:33:21.408Z,13.03
2023-02-17T15:35:53.526Z,12.40
2023-02-17T15:38:21.232Z,11.80
2023-02-17T15:40:49.724Z,12.03
2023-02-17T15:43:21.521Z,11.90
2023-02-17T15:45:49.557Z,10.47
2023-02-17T15:48:24.316Z,12.20
2023-02-17T15:50:52.398Z,12.07
2023-02-17T15:53:20.018Z,12.33
2023-02-17T15:55:47.778Z,11.40
2023-02-17T15:58:18.567Z,10.20
2023-02-17T16:00:46.594Z,11.43
2023-02-17T16:03:15.101Z,9.40
2023-02-17T16:05:42.928Z,10.10
2023-02-17T16:08:09.910Z,10.30
2023-02-17T16:10:36.985Z,10.07
2023-02-17T16:13:04.278Z,9.43
2023-02-17T16:15:32.853Z,9.70
2023-02-17T16:18:00.053Z,9.40
2023-02-17T16:20:30.435Z,10.13
2023-02-17T16:22:57.477Z,8.90
2023-02-17T16:25:24.783Z,9.50
2023-02-17T16:27:53.259Z,9.87
2023-02-17T16:30:33.766Z,9.67
2023-02-17T16:33:02.088Z,9.93
2023-02-17T16:35:32.096Z,9.20
2023-02-17T16:38:07.133Z,8.53
2023-02-17T16:40:36.392Z,8.83
2023-02-17T16:43:04.106Z,8.77
2023-02-17T16:45:32.646Z,8.20
2023-02-17T16:48:01.177Z,9.10
2023-02-17T16:50:37.451Z,9.00
2023-02-17T16:53:08.755Z,9.00
2023-02-17T16:55:37.628Z,8.50
2023-02-17T16:58:13.237Z,8.10
2023-02-17T17:00:40.878Z,8.30
2023-02-17T17:03:07.837Z,8.30
2023-02-17T17:05:35.743Z,8.40
2023-02-17T17:08:03.966Z,8.30
2023-02-17T17:10:32.455Z,6.77
2023-02-17T17:13:00.546Z,7.87
2023-02-17T17:15:28.180Z,7.37
2023-02-17T17:18:07.656Z,8.30
2023-02-17T17:20:41.635Z,8.20
2023-02-17T17:23:17.402Z,7.10
2023-02-17T17:25:46.483Z,7.73
2023-02-17T17:28:15.855Z,8.17
2023-02-17T17:30:42.956Z,7.67
2023-02-17T17:33:09.645Z,7.17
2023-02-17T17:35:37.137Z,7.80
2023-02-17T17:38:04.384Z,6.07
2023-02-17T17:40:48.529Z,7.10
2023-02-17T17:43:16.694Z,7.07
2023-02-17T17:45:43.397Z,6.70
2023-02-17T17:48:13.679Z,6.73
2023-02-17T17:50:41.280Z,6.50
2023-02-17T17:53:08.649Z,7.00
2023-02-17T17:55:35.822Z,7.90
2023-02-17T17:58:02.993Z,7.87
2023-02-17T18:00:29.692Z,8.50
2023-02-17T18:02:56.475Z,10.07
2023-02-17T18:05:23.596Z,8.53
2023-02-17T18:07:51.595Z,9.03
2023-02-17T18:10:18.397Z,9.70
2023-02-17T18:12:46.319Z,8.40
2023-02-17T18:15:13.956Z,7.50
2023-02-17T18:17:42.267Z,8.17
2023-02-17T18:20:10.949Z,7.63
2023-02-17T18:22:37.725Z,7.90
2023-02-17T18:25:05.276Z,8.53
2023-02-17T18:27:43.255Z,7.70
2023-02-17T18:30:15.847Z,8.00
2023-02-17T18:32:44.259Z,7.90
2023-02-17T18:35:11.844Z,8.20
2023-02-17T18:37:40.794Z,8.10
2023-02-17T18:40:11.383Z,8.80
2023-02-17T18:42:39.001Z,8.43
2023-02-17T18:45:06.193Z,8.87
2023-02-17T18:47:33.279Z,8.03
2023-02-17T18:49:59.943Z,8.20
2023-02-17T18:52:27.208Z,9.50
2023-02-17T18:54:53.896Z,9.00
2023-02-17T18:57:20.659Z,9.03
2023-02-17T18:59:47.334Z,8.80
2023-02-17T19:02:14.029Z,8.67
2023-02-17T19:04:40.777Z,10.13
2023-02-17T19:07:10.891Z,8.50
2023-02-17T19:09:46.679Z,9.00
2023-02-17T19:12:15.684Z,9.33
2023-02-17T19:14:42.720Z,8.47
2023-02-17T19:17:10.774Z,9.23
2023-02-17T19:19:41.214Z,9.40
2023-02-17T19:22:11.218Z,9.80
2023-02-17T19:24:40.151Z,10.27
2023-02-17T19:27:07.895Z,9.03
2023-02-17T19:29:35.060Z,9.70
2023-02-17T19:32:03.155Z,9.87
2023-02-17T19:34:31.114Z,10.07
2023-02-17T19:36:58.512Z,10.70
2023-02-17T19:39:25.548Z,13.37
2023-02-17T19:41:52.408Z,12.37
2023-02-17T19:44:20.003Z,14.33
2023-02-17T19:46:46.825Z,13.80
2023-02-17T19:49:13.993Z,14.07
2023-02-17T19:51:40.627Z,14.77
2023-02-17T19:54:07.267Z,13.63
2023-02-17T19:56:36.189Z,16.67
2023-02-17T19:59:02.879Z,15.50
2023-02-17T20:01:31.883Z,15.83
2023-02-17T20:04:01.959Z,16.20
2023-02-17T20:06:36.074Z,14.07
2023-02-17T20:09:06.298Z,11.37
2023-02-17T20:11:33.865Z,9.00
2023-02-17T20:14:02.024Z,10.63
2023-02-17T20:16:29.773Z,11.80
2023-02-17T20:18:56.967Z,12.33
2023-02-17T20:21:26.373Z,11.00
2023-02-17T20:23:53.330Z,12.40
2023-02-17T20:26:25.350Z,13.73
2023-02-17T20:28:53.174Z,14.70
2023-02-17T20:31:20.376Z,12.80
2023-02-17T20:33:48.062Z,14.50
2023-02-17T20:36:15.419Z,14.50
2023-02-17T20:38:43.134Z,14.63
2023-02-17T20:41:14.055Z,15.13
2023-02-17T20:43:44.347Z,16.47
2023-02-17T20:46:25.057Z,15.53
2023-02-17T20:48:52.853Z,16.30
2023-02-17T20:51:20.105Z,16.03
2023-02-17T20:53:47.040Z,15.40
2023-02-17T20:56:17.102Z,16.33
2023-02-17T20:58:44.249Z,16.97
2023-02-17T21:01:12.062Z,17.30
2023-02-17T21:03:39.471Z,16.40
2023-02-17T21:06:27.494Z,17.33
2023-02-17T21:08:57.061Z,17.73
2023-02-17T21:11:24.978Z,17.20
2023-02-17T21:13:56.076Z,17.70
2023-02-17T21:16:26.228Z,16.80
2023-02-17T21:18:53.624Z,16.87
2023-02-17T21:21:21.005Z,17.90
2023-02-17T21:23:48.133Z,16.57
2023-02-17T21:26:16.734Z,15.10
2023-02-17T21:28:47.116Z,15.13
2023-02-17T21:31:15.500Z,14.17
2023-02-17T21:33:43.237Z,12.47
2023-02-17T21:36:12.374Z,11.20
2023-02-17T21:38:40.135Z,10.50
2023-02-17T21:41:10.727Z,10.87
2023-02-17T21:43:57.681Z,11.63
2023-02-17T21:46:25.816Z,14.43
2023-02-17T21:48:53.662Z,14.17
2023-02-17T21:51:20.817Z,15.47
2023-02-17T21:53:47.819Z,16.43
2023-02-17T21:56:14.881Z,15.60
2023-02-17T21:58:49.014Z,18.27
2023-02-17T22:01:17.164Z,18.07
2023-02-17T22:03:44.146Z,18.90
2023-02-17T22:06:23.845Z,19.97
2023-02-17T22:08:51.567Z,19.93
2023-02-17T22:11:26.118Z,19.70
2023-02-17T22:13:58.326Z,20.57
2023-02-17T22:16:25.433Z,19.90
2023-02-17T22:18:52.857Z,22.07
2023-02-17T22:21:19.822Z,22.90
2023-02-17T22:23:46.997Z,21.17
2023-02-17T22:26:25.261Z,21.70
2023-02-17T22:28:53.420Z,22.80
2023-02-17T22:31:23.996Z,22.30
2023-02-17T22:33:51.206Z,24.33
2023-02-17T22:36:22.750Z,22.83
2023-02-17T22:38:50.097Z,22.17
2023-02-17T22:41:19.435Z,21.47
2023-02-17T22:43:49.148Z,22.00
2023-02-17T22:46:18.746Z,22.27
2023-02-17T22:48:47.884Z,23.43
2023-02-17T22:51:21.464Z,23.57
2023-02-17T22:53:48.726Z,24.33
2023-02-17T22:56:16.273Z,22.80
2023-02-17T22:58:43.270Z,22.87
2023-02-17T23:01:14.620Z,22.87
2023-02-17T23:03:42.849Z,22.43
2023-02-17T23:06:18.905Z,22.50
2023-02-17T23:08:47.687Z,23.23
2023-02-17T23:11:17.187Z,23.07
2023-02-17T23:13:44.566Z,24.33
2023-02-17T23:16:11.593Z,22.40
2023-02-17T23:18:38.779Z,24.70
2023-02-17T23:21:11.923Z,23.83
2023-02-17T23:23:39.183Z,23.80
2023-02-17T23:26:06.562Z,25.47
2023-02-17T23:28:34.160Z,26.30
2023-02-17T23:31:01.185Z,25.80
2023-02-17T23:33:28.108Z,25.60
2023-02-17T23:35:55.574Z,25.37
2023-02-17T23:38:22.594Z,25.03
2023-02-17T23:40:51.504Z,24.63
2023-02-17T23:43:19.379Z,25.40
2023-02-17T23:45:46.376Z,27.60
2023-02-17T23:48:13.419Z,28.37
2023-02-17T23:50:40.837Z,26.13
2023-02-17T23:53:08.293Z,28.17
2023-02-17T23:55:35.364Z,28.97
2023-02-17T23:58:02.404Z,26.33
